Time,TemperatureF,DewpointF,PressureIn,WindDirection,WindDirectionDegrees,WindSpeedMPH,WindSpeedGustMPH,Humidity,HourlyPrecipIn,Conditions,Clouds,dailyrainin,SoftwareType,DateUTC
2013-06-30 00:01:00,74.7,72.5,29.72,SSE,158,0.0,1.0,93,0.00,,,0.27,meteohub,2013-06-30 04:01:00,
2013-06-30 00:02:00,74.7,72.5,29.72,SSE,158,0.0,1.0,93,0.00,,,0.27,meteohub,2013-06-30 04:02:00,
2013-06-30 00:04:00,74.7,72.5,29.72,SSE,158,0.0,1.0,93,0.00,,,0.27,meteohub,2013-06-30 04:04:00,
2013-06-30 00:09:00,74.7,72.5,29.72,SSE,158,0.0,1.0,93,0.00,,,0.00,meteohub,2013-06-30 04:09:00,
2013-06-30 00:14:00,74.7,72.5,29.72,SSE,158,0.0,1.0,93,0.00,,,0.00,meteohub,2013-06-30 04:14:00,
2013-06-30 00:19:00,74.7,72.9,29.72,SSE,158,0.0,1.0,94,0.00,,,0.00,meteohub,2013-06-30 04:19:00,
2013-06-30 00:24:00,74.7,72.9,29.72,SSE,158,0.0,0.0,94,0.00,,,0.00,meteohub,2013-06-30 04:24:00,
2013-06-30 00:30:00,74.5,72.7,29.72,SE,130,0.0,0.0,94,0.00,,,0.00,meteohub,2013-06-30 04:30:00,
2013-06-30 00:35:00,74.5,72.7,29.72,SE,130,0.0,2.0,94,0.00,,,0.00,meteohub,2013-06-30 04:35:00,
2013-06-30 00:40:00,74.7,72.9,29.72,SE,130,0.0,2.0,94,0.00,,,0.00,meteohub,2013-06-30 04:40:00,
2013-06-30 00:45:00,74.7,72.9,29.73,SE,130,0.0,1.0,94,0.00,,,0.00,meteohub,2013-06-30 04:45:00,
2013-06-30 00:50:00,74.7,72.9,29.73,SE,130,0.0,0.0,94,0.00,,,0.00,meteohub,2013-06-30 04:50:00,
2013-06-30 00:55:00,74.7,72.9,29.73,SE,130,0.0,0.0,94,0.00,,,0.00,meteohub,2013-06-30 04:55:00,
2013-06-30 01:01:00,74.7,73.2,29.73,SE,130,0.0,0.0,95,0.00,,,0.00,meteohub,2013-06-30 05:01:00,
2013-06-30 01:06:00,74.5,73.0,29.73,SE,130,0.0,0.0,95,0.00,,,0.00,meteohub,2013-06-30 05:06:00,
2013-06-30 01:11:00,74.5,73.0,29.73,SE,130,0.0,0.0,95,0.00,,,0.00,meteohub,2013-06-30 05:11:00,
2013-06-30 01:16:00,74.5,73.0,29.73,SE,130,0.0,0.0,95,0.00,,,0.00,meteohub,2013-06-30 05:16:00,
2013-06-30 01:21:00,74.5,73.0,29.73,SE,130,0.0,0.0,95,0.00,,,0.00,meteohub,2013-06-30 05:21:00,
2013-06-30 01:26:00,74.3,73.0,29.73,SE,130,0.0,0.0,96,0.00,,,0.00,meteohub,2013-06-30 05:26:00,
2013-06-30 01:31:00,74.3,73.0,29.73,SE,130,0.0,0.0,96,0.00,,,0.00,meteohub,2013-06-30 05:31:00,
2013-06-30 01:37:00,74.3,73.0,29.73,SE,130,0.0,0.0,96,0.00,,,0.00,meteohub,2013-06-30 05:37:00,
2013-06-30 01:42:00,74.3,73.0,29.73,SE,130,0.0,1.0,96,0.00,,,0.00,meteohub,2013-06-30 05:42:00,
2013-06-30 01:47:00,74.3,73.0,29.73,SE,130,0.0,1.0,96,0.00,,,0.00,meteohub,2013-06-30 05:47:00,
2013-06-30 01:52:00,74.3,73.0,29.73,SE,130,0.0,1.0,96,0.00,,,0.00,meteohub,2013-06-30 05:52:00,
2013-06-30 01:57:00,74.3,73.0,29.73,SE,130,0.0,1.0,96,0.00,,,0.00,meteohub,2013-06-30 05:57:00,
2013-06-30 02:02:00,74.1,72.9,29.73,SE,130,0.0,1.0,96,0.00,,,0.00,meteohub,2013-06-30 06:02:00,
2013-06-30 02:07:00,74.1,72.9,29.73,SE,130,0.0,1.0,96,0.00,,,0.00,meteohub,2013-06-30 06:07:00,
2013-06-30 02:12:00,74.1,72.9,29.73,SE,130,0.0,1.0,96,0.00,,,0.00,meteohub,2013-06-30 06:12:00,
2013-06-30 02:17:00,74.1,72.9,29.73,SE,130,0.0,1.0,96,0.00,,,0.00,meteohub,2013-06-30 06:17:00,
2013-06-30 02:22:00,73.9,72.7,29.73,SE,130,0.0,1.0,96,0.00,,,0.00,meteohub,2013-06-30 06:22:00,
2013-06-30 02:27:00,73.9,72.7,29.73,SE,130,0.0,1.0,96,0.00,,,0.00,meteohub,2013-06-30 06:27:00,
2013-06-30 02:32:00,73.9,72.7,29.72,SE,130,0.0,1.0,96,0.00,,,0.00,meteohub,2013-06-30 06:32:00,
2013-06-30 02:37:00,73.9,72.7,29.72,SE,130,1.0,1.0,96,0.00,,,0.00,meteohub,2013-06-30 06:37:00,
2013-06-30 02:42:00,74.1,72.9,29.72,SE,130,0.0,1.0,96,0.00,,,0.00,meteohub,2013-06-30 06:42:00,
2013-06-30 02:47:00,74.1,72.9,29.72,SE,130,0.0,1.0,96,0.00,,,0.00,meteohub,2013-06-30 06:47:00,
2013-06-30 02:52:00,74.1,72.9,29.72,SE,130,0.0,1.0,96,0.00,,,0.00,meteohub,2013-06-30 06:52:00,
2013-06-30 02:57:00,73.9,72.7,29.71,SE,130,0.0,1.0,96,0.00,,,0.00,meteohub,2013-06-30 06:57:00,
2013-06-30 03:03:00,73.9,72.7,29.71,SE,130,0.0,1.0,96,0.00,,,0.00,meteohub,2013-06-30 07:03:00,
2013-06-30 03:08:00,73.9,72.7,29.71,SE,130,0.0,1.0,96,0.00,,,0.00,meteohub,2013-06-30 07:08:00,
2013-06-30 03:13:00,73.8,72.9,29.71,SE,130,0.0,1.0,97,0.00,,,0.00,meteohub,2013-06-30 07:13:00,
2013-06-30 03:18:00,73.8,72.9,29.71,SE,130,0.0,1.0,97,0.00,,,0.00,meteohub,2013-06-30 07:18:00,
2013-06-30 03:23:00,73.8,72.9,29.71,SE,130,0.0,1.0,97,0.00,,,0.00,meteohub,2013-06-30 07:23:00,
2013-06-30 03:29:00,73.8,72.9,29.71,SE,130,0.0,1.0,97,0.00,,,0.00,meteohub,2013-06-30 07:29:00,
2013-06-30 03:34:00,73.6,72.7,29.71,SE,130,0.0,1.0,97,0.00,,,0.00,meteohub,2013-06-30 07:34:00,
2013-06-30 03:39:00,73.6,72.7,29.71,SE,130,0.0,1.0,97,0.00,,,0.00,meteohub,2013-06-30 07:39:00,
2013-06-30 03:44:00,73.6,72.7,29.71,SE,130,0.0,1.0,97,0.00,,,0.00,meteohub,2013-06-30 07:44:00,
2013-06-30 03:49:00,73.6,72.7,29.71,SE,130,0.0,1.0,97,0.00,,,0.00,meteohub,2013-06-30 07:49:00,
2013-06-30 03:54:00,73.6,72.7,29.72,ESE,117,0.0,1.0,97,0.00,,,0.00,meteohub,2013-06-30 07:54:00,
2013-06-30 04:00:00,73.6,72.7,29.71,SE,135,1.0,2.0,97,0.00,,,0.00,meteohub,2013-06-30 08:00:00,
2013-06-30 04:05:00,73.4,72.1,29.71,ESE,119,1.0,4.0,96,0.00,,,0.00,meteohub,2013-06-30 08:05:00,
2013-06-30 04:10:00,73.2,71.8,29.71,ESE,113,1.0,4.0,95,0.01,,,0.01,meteohub,2013-06-30 08:10:00,
2013-06-30 04:15:00,72.7,70.9,29.71,ESE,107,0.0,3.0,94,0.01,,,0.01,meteohub,2013-06-30 08:15:00,
2013-06-30 04:20:00,72.1,70.7,29.71,SSE,147,0.0,3.0,95,0.04,,,0.04,meteohub,2013-06-30 08:20:00,
2013-06-30 04:26:00,71.8,70.3,29.71,SSE,148,1.0,3.0,95,0.12,,,0.12,meteohub,2013-06-30 08:26:00,
2013-06-30 04:31:00,71.2,69.8,29.72,SE,144,0.0,3.0,95,0.22,,,0.22,meteohub,2013-06-30 08:31:00,
2013-06-30 04:36:00,70.9,69.6,29.72,ENE,66,0.0,2.0,96,0.25,,,0.25,meteohub,2013-06-30 08:36:00,
2013-06-30 04:41:00,70.3,68.9,29.73,SE,127,0.0,2.0,95,0.27,,,0.27,meteohub,2013-06-30 08:41:00,
2013-06-30 04:47:00,69.8,68.4,29.73,SE,127,0.0,2.0,95,0.29,,,0.29,meteohub,2013-06-30 08:47:00,
2013-06-30 04:52:00,69.4,68.2,29.73,SE,127,0.0,2.0,96,0.34,,,0.34,meteohub,2013-06-30 08:52:00,
2013-06-30 04:57:00,69.3,68.4,29.73,West,279,0.0,1.0,97,0.42,,,0.42,meteohub,2013-06-30 08:57:00,
2013-06-30 05:02:00,69.1,68.2,29.72,NE,36,0.0,1.0,97,0.47,,,0.47,meteohub,2013-06-30 09:02:00,
2013-06-30 05:07:00,69.1,68.2,29.73,SSE,155,0.0,2.0,97,0.53,,,0.54,meteohub,2013-06-30 09:07:00,
2013-06-30 05:12:00,69.1,68.2,29.73,SSE,155,0.0,2.0,97,0.55,,,0.56,meteohub,2013-06-30 09:12:00,
2013-06-30 05:17:00,69.1,68.2,29.73,SSE,155,0.0,2.0,97,0.55,,,0.56,meteohub,2013-06-30 09:17:00,
2013-06-30 05:22:00,69.1,68.2,29.73,SSE,163,0.0,2.0,97,0.48,,,0.56,meteohub,2013-06-30 09:22:00,
2013-06-30 05:27:00,69.1,68.2,29.73,SSE,163,0.0,2.0,97,0.43,,,0.56,meteohub,2013-06-30 09:27:00,
2013-06-30 05:32:00,69.1,68.2,29.73,SSE,161,0.0,2.0,97,0.34,,,0.56,meteohub,2013-06-30 09:32:00,
2013-06-30 05:37:00,69.1,68.2,29.73,SSE,161,0.0,1.0,97,0.31,,,0.56,meteohub,2013-06-30 09:37:00,
2013-06-30 05:42:00,69.1,68.5,29.73,SSE,161,0.0,1.0,98,0.28,,,0.56,meteohub,2013-06-30 09:42:00,
2013-06-30 05:47:00,69.1,68.5,29.73,SSE,161,0.0,0.0,98,0.25,,,0.56,meteohub,2013-06-30 09:47:00,
2013-06-30 05:52:00,68.9,68.4,29.74,SSE,161,0.0,0.0,98,0.19,,,0.56,meteohub,2013-06-30 09:52:00,
2013-06-30 05:57:00,68.9,68.4,29.74,SSE,161,0.0,0.0,98,0.12,,,0.56,meteohub,2013-06-30 09:57:00,
2013-06-30 06:02:00,68.9,68.4,29.75,SSE,161,0.0,1.0,98,0.06,,,0.56,meteohub,2013-06-30 10:02:00,
2013-06-30 06:07:00,68.7,68.2,29.75,SSE,161,0.0,1.0,98,0.00,,,0.56,meteohub,2013-06-30 10:07:00,
2013-06-30 06:12:00,68.9,68.4,29.75,SSE,161,0.0,1.0,98,0.00,,,0.56,meteohub,2013-06-30 10:12:00,
2013-06-30 06:17:00,68.9,68.4,29.75,SSE,161,0.0,1.0,98,0.00,,,0.56,meteohub,2013-06-30 10:17:00,
2013-06-30 06:22:00,68.7,68.2,29.75,SSE,161,0.0,0.0,98,0.00,,,0.56,meteohub,2013-06-30 10:22:00,
2013-06-30 06:27:00,68.9,68.4,29.75,SSE,161,0.0,0.0,98,0.00,,,0.56,meteohub,2013-06-30 10:27:00,
2013-06-30 06:32:00,69.1,68.5,29.75,SSE,161,0.0,0.0,98,0.00,,,0.56,meteohub,2013-06-30 10:32:00,
2013-06-30 06:37:00,69.1,68.7,29.75,SSE,161,0.0,0.0,99,0.00,,,0.56,meteohub,2013-06-30 10:37:00,
2013-06-30 06:42:00,69.3,68.9,29.75,SSE,161,0.0,0.0,99,0.00,,,0.56,meteohub,2013-06-30 10:42:00,
2013-06-30 06:47:00,69.3,68.9,29.75,SSE,161,0.0,0.0,99,0.00,,,0.56,meteohub,2013-06-30 10:47:00,
2013-06-30 06:52:00,69.4,69.1,29.75,SSE,161,0.0,0.0,99,0.00,,,0.56,meteohub,2013-06-30 10:52:00,
2013-06-30 06:57:00,69.8,69.4,29.76,SSE,161,0.0,0.0,99,0.00,,,0.56,meteohub,2013-06-30 10:57:00,
2013-06-30 07:02:00,70.0,69.6,29.76,SSE,161,0.0,0.0,99,0.00,,,0.56,meteohub,2013-06-30 11:02:00,
2013-06-30 07:07:00,70.2,69.8,29.76,SSE,161,0.0,0.0,99,0.00,,,0.56,meteohub,2013-06-30 11:07:00,
2013-06-30 07:12:00,70.2,69.8,29.76,SSE,161,0.0,0.0,99,0.00,,,0.56,meteohub,2013-06-30 11:12:00,
2013-06-30 07:17:00,70.3,70.0,29.76,SSE,161,0.0,1.0,99,0.00,,,0.56,meteohub,2013-06-30 11:17:00,
2013-06-30 07:22:00,70.3,70.0,29.77,SSE,161,0.0,1.0,99,0.00,,,0.56,meteohub,2013-06-30 11:22:00,
2013-06-30 07:27:00,70.3,70.0,29.77,SSE,159,0.0,1.0,99,0.00,,,0.56,meteohub,2013-06-30 11:27:00,
2013-06-30 07:32:00,70.5,70.2,29.77,SSE,159,0.0,1.0,99,0.00,,,0.56,meteohub,2013-06-30 11:32:00,
2013-06-30 07:37:00,70.7,70.3,29.77,SSE,159,0.0,1.0,99,0.00,,,0.56,meteohub,2013-06-30 11:37:00,
2013-06-30 07:42:00,70.9,70.5,29.77,SSE,159,0.0,1.0,99,0.00,,,0.56,meteohub,2013-06-30 11:42:00,
2013-06-30 07:47:00,71.1,70.7,29.78,SSE,159,0.0,1.0,99,0.00,,,0.56,meteohub,2013-06-30 11:47:00,
2013-06-30 07:52:00,71.1,70.7,29.78,SSE,159,0.0,1.0,99,0.00,,,0.56,meteohub,2013-06-30 11:52:00,
2013-06-30 07:57:00,71.2,71.2,29.78,SE,142,0.0,1.0,100,0.00,,,0.56,meteohub,2013-06-30 11:57:00,
2013-06-30 08:02:00,71.2,71.2,29.78,SE,142,0.0,1.0,100,0.00,,,0.56,meteohub,2013-06-30 12:02:00,
2013-06-30 08:07:00,71.4,71.4,29.78,ESE,119,0.0,2.0,100,0.00,,,0.56,meteohub,2013-06-30 12:07:00,
2013-06-30 08:12:00,71.6,71.2,29.78,ESE,119,0.0,2.0,99,0.00,,,0.56,meteohub,2013-06-30 12:12:00,
2013-06-30 08:17:00,71.8,71.4,29.78,ESE,119,0.0,2.0,99,0.00,,,0.56,meteohub,2013-06-30 12:17:00,
2013-06-30 08:22:00,71.8,71.4,29.78,ESE,119,0.0,1.0,99,0.00,,,0.56,meteohub,2013-06-30 12:22:00,
2013-06-30 08:27:00,72.0,72.0,29.78,ESE,119,0.0,0.0,100,0.00,,,0.56,meteohub,2013-06-30 12:27:00,
2013-06-30 08:32:00,72.3,72.3,29.78,ESE,119,0.0,0.0,100,0.00,,,0.56,meteohub,2013-06-30 12:32:00,
2013-06-30 08:37:00,72.9,72.9,29.78,ESE,119,0.0,0.0,100,0.00,,,0.56,meteohub,2013-06-30 12:37:00,
2013-06-30 08:42:00,72.9,72.9,29.78,ESE,119,0.0,0.0,100,0.00,,,0.56,meteohub,2013-06-30 12:42:00,
2013-06-30 08:47:00,73.0,73.0,29.78,ESE,119,0.0,0.0,100,0.00,,,0.56,meteohub,2013-06-30 12:47:00,
2013-06-30 08:52:00,73.2,73.2,29.78,ESE,119,0.0,0.0,100,0.00,,,0.56,meteohub,2013-06-30 12:52:00,
2013-06-30 08:57:00,73.2,73.2,29.78,SSW,205,0.0,1.0,100,0.00,,,0.56,meteohub,2013-06-30 12:57:00,
2013-06-30 09:02:00,73.4,73.4,29.78,SSW,205,0.0,1.0,100,0.00,,,0.56,meteohub,2013-06-30 13:02:00,
2013-06-30 09:07:00,73.4,73.0,29.78,SSW,205,0.0,1.0,99,0.00,,,0.56,meteohub,2013-06-30 13:07:00,
2013-06-30 09:12:00,73.6,73.2,29.78,SSW,205,0.0,0.0,99,0.00,,,0.56,meteohub,2013-06-30 13:12:00,
2013-06-30 09:17:00,73.6,73.2,29.78,SSW,205,0.0,0.0,99,0.00,,,0.56,meteohub,2013-06-30 13:17:00,
2013-06-30 09:22:00,73.9,73.6,29.78,SSW,205,0.0,0.0,99,0.00,,,0.56,meteohub,2013-06-30 13:22:00,
2013-06-30 09:27:00,74.1,73.8,29.78,West,263,0.0,2.0,99,0.00,,,0.56,meteohub,2013-06-30 13:27:00,
2013-06-30 09:32:00,74.1,73.6,29.78,West,263,0.0,2.0,98,0.00,,,0.56,meteohub,2013-06-30 13:32:00,
2013-06-30 09:37:00,74.1,73.2,29.78,West,263,0.0,2.0,97,0.00,,,0.56,meteohub,2013-06-30 13:37:00,
2013-06-30 09:42:00,74.1,73.6,29.78,West,263,0.0,1.0,98,0.00,,,0.56,meteohub,2013-06-30 13:42:00,
2013-06-30 09:47:00,74.7,73.8,29.78,West,263,0.0,0.0,97,0.00,,,0.56,meteohub,2013-06-30 13:47:00,
2013-06-30 09:52:00,74.8,73.6,29.78,NW,316,1.0,1.0,96,0.00,,,0.56,meteohub,2013-06-30 13:52:00,
2013-06-30 09:57:00,75.0,73.8,29.78,NW,311,0.0,2.0,96,0.00,,,0.56,meteohub,2013-06-30 13:57:00,
2013-06-30 10:02:00,75.4,73.8,29.78,SW,236,0.0,2.0,95,0.00,,,0.56,meteohub,2013-06-30 14:02:00,
2013-06-30 10:07:00,75.4,73.8,29.78,SW,234,0.0,2.0,95,0.00,,,0.56,meteohub,2013-06-30 14:07:00,
2013-06-30 10:12:00,75.7,74.1,29.78,WSW,237,2.0,2.0,95,0.00,,,0.56,meteohub,2013-06-30 14:12:00,
2013-06-30 10:17:00,75.7,73.2,29.78,WSW,247,0.0,3.0,92,0.00,,,0.56,meteohub,2013-06-30 14:17:00,
2013-06-30 10:22:00,75.9,74.1,29.78,SW,221,0.0,3.0,94,0.00,,,0.56,meteohub,2013-06-30 14:22:00,
2013-06-30 10:27:00,76.3,73.8,29.78,SSE,153,0.0,3.0,92,0.00,,,0.56,meteohub,2013-06-30 14:27:00,
2013-06-30 10:32:00,76.5,73.9,29.78,ESE,103,0.0,2.0,92,0.00,,,0.56,meteohub,2013-06-30 14:32:00,
2013-06-30 10:37:00,76.8,73.6,29.78,WSW,242,2.0,2.0,90,0.00,,,0.56,meteohub,2013-06-30 14:37:00,
2013-06-30 10:42:00,76.8,73.6,29.78,SSW,202,0.0,3.0,90,0.00,,,0.56,meteohub,2013-06-30 14:42:00,
2013-06-30 10:47:00,76.8,73.9,29.79,ESE,116,0.0,3.0,91,0.00,,,0.56,meteohub,2013-06-30 14:47:00,
2013-06-30 10:52:00,77.2,74.3,29.78,ESE,116,0.0,3.0,91,0.00,,,0.56,meteohub,2013-06-30 14:52:00,
2013-06-30 10:57:00,77.4,74.1,29.78,ESE,116,0.0,2.0,90,0.00,,,0.56,meteohub,2013-06-30 14:57:00,
2013-06-30 11:02:00,77.5,73.8,29.78,SW,215,1.0,1.0,88,0.00,,,0.56,meteohub,2013-06-30 15:02:00,
2013-06-30 11:07:00,77.9,73.8,29.78,NW,309,0.0,2.0,87,0.00,,,0.56,meteohub,2013-06-30 15:07:00,
2013-06-30 11:12:00,78.1,73.2,29.78,East,92,0.0,2.0,85,0.00,,,0.56,meteohub,2013-06-30 15:12:00,
2013-06-30 11:17:00,78.3,74.1,29.78,ESE,109,0.0,2.0,87,0.00,,,0.56,meteohub,2013-06-30 15:17:00,
2013-06-30 11:22:00,78.1,73.2,29.78,SSW,207,0.0,1.0,85,0.00,,,0.56,meteohub,2013-06-30 15:22:00,
2013-06-30 11:27:00,78.3,73.4,29.78,South,173,0.0,3.0,85,0.00,,,0.56,meteohub,2013-06-30 15:27:00,
2013-06-30 11:33:00,78.3,74.1,29.78,South,173,0.0,3.0,87,0.00,,,0.56,meteohub,2013-06-30 15:33:00,
2013-06-30 11:38:00,78.3,73.8,29.78,South,181,0.0,2.0,86,0.00,,,0.56,meteohub,2013-06-30 15:38:00,
2013-06-30 11:43:00,78.4,73.2,29.78,SW,223,1.0,1.0,84,0.00,,,0.56,meteohub,2013-06-30 15:43:00,
2013-06-30 11:48:00,79.0,73.4,29.78,SW,236,0.0,2.0,83,0.00,,,0.56,meteohub,2013-06-30 15:48:00,
2013-06-30 11:53:00,79.3,74.5,29.78,SSW,210,1.0,2.0,85,0.00,,,0.56,meteohub,2013-06-30 15:53:00,
2013-06-30 11:58:00,79.5,73.9,29.78,ESE,118,0.0,2.0,83,0.00,,,0.56,meteohub,2013-06-30 15:58:00,
2013-06-30 12:03:00,79.9,73.9,29.78,ESE,118,0.0,2.0,82,0.00,,,0.56,meteohub,2013-06-30 16:03:00,
2013-06-30 12:09:00,80.4,74.1,29.78,West,266,1.0,2.0,81,0.00,,,0.56,meteohub,2013-06-30 16:09:00,
2013-06-30 12:14:00,80.4,74.1,29.78,SSE,163,0.0,4.0,81,0.00,,,0.56,meteohub,2013-06-30 16:14:00,
2013-06-30 12:19:00,80.8,73.6,29.78,SSW,213,0.0,4.0,79,0.00,,,0.56,meteohub,2013-06-30 16:19:00,
2013-06-30 12:24:00,80.4,74.5,29.78,SSW,213,0.0,4.0,82,0.00,,,0.56,meteohub,2013-06-30 16:24:00,
2013-06-30 12:29:00,80.2,73.6,29.78,ESE,115,0.0,3.0,80,0.00,,,0.56,meteohub,2013-06-30 16:29:00,
2013-06-30 12:34:00,80.8,74.5,29.78,South,182,0.0,3.0,81,0.00,,,0.56,meteohub,2013-06-30 16:34:00,
2013-06-30 12:39:00,81.9,75.4,29.78,South,171,1.0,1.0,81,0.00,,,0.56,meteohub,2013-06-30 16:39:00,
2013-06-30 12:44:00,81.9,73.6,29.77,ESE,119,1.0,3.0,76,0.00,,,0.56,meteohub,2013-06-30 16:44:00,
2013-06-30 12:49:00,82.0,72.9,29.77,ESE,120,0.0,3.0,74,0.00,,,0.56,meteohub,2013-06-30 16:49:00,
2013-06-30 12:55:00,82.2,74.3,29.77,North,355,0.0,3.0,77,0.00,,,0.56,meteohub,2013-06-30 16:55:00,
2013-06-30 13:00:00,82.9,73.4,29.77,WSW,245,0.0,2.0,73,0.00,,,0.56,meteohub,2013-06-30 17:00:00,
2013-06-30 13:05:00,82.8,74.8,29.77,ESE,115,1.0,3.0,77,0.00,,,0.56,meteohub,2013-06-30 17:05:00,
2013-06-30 13:10:00,82.6,73.0,29.77,ESE,114,0.0,3.0,73,0.00,,,0.56,meteohub,2013-06-30 17:10:00,
2013-06-30 13:15:00,82.2,73.9,29.77,ESE,113,0.0,2.0,76,0.00,,,0.56,meteohub,2013-06-30 17:15:00,
2013-06-30 13:20:00,82.0,73.8,29.76,ESE,113,0.0,2.0,76,0.00,,,0.56,meteohub,2013-06-30 17:20:00,
2013-06-30 13:26:00,82.0,73.8,29.76,ESE,119,1.0,2.0,76,0.00,,,0.56,meteohub,2013-06-30 17:26:00,
2013-06-30 13:31:00,81.9,73.9,29.76,ESE,115,1.0,3.0,77,0.00,,,0.56,meteohub,2013-06-30 17:31:00,
2013-06-30 13:36:00,82.4,73.8,29.76,SSE,157,0.0,3.0,75,0.00,,,0.56,meteohub,2013-06-30 17:36:00,
2013-06-30 13:41:00,81.9,72.7,29.77,ESE,116,1.0,3.0,74,0.00,,,0.56,meteohub,2013-06-30 17:41:00,
2013-06-30 13:46:00,82.0,72.9,29.76,ESE,105,0.0,3.0,74,0.00,,,0.56,meteohub,2013-06-30 17:46:00,
2013-06-30 13:51:00,82.6,73.8,29.76,ESE,118,0.0,3.0,75,0.00,,,0.56,meteohub,2013-06-30 17:51:00,
2013-06-30 13:56:00,81.9,72.3,29.76,ESE,119,2.0,3.0,73,0.00,,,0.56,meteohub,2013-06-30 17:56:00,
2013-06-30 14:01:00,82.0,72.1,29.76,ESE,121,0.0,2.0,72,0.00,,,0.56,meteohub,2013-06-30 18:01:00,
2013-06-30 14:06:00,81.9,72.3,29.75,ESE,121,0.0,2.0,73,0.00,,,0.56,meteohub,2013-06-30 18:06:00,
2013-06-30 14:12:00,81.9,73.6,29.76,ESE,121,2.0,2.0,76,0.00,,,0.56,meteohub,2013-06-30 18:12:00,
2013-06-30 14:17:00,81.7,73.4,29.75,ESE,111,0.0,2.0,76,0.00,,,0.56,meteohub,2013-06-30 18:17:00,
2013-06-30 14:22:00,81.3,74.1,29.75,ESE,111,0.0,2.0,79,0.00,,,0.56,meteohub,2013-06-30 18:22:00,
2013-06-30 14:27:00,81.0,74.1,29.75,ESE,111,0.0,2.0,80,0.00,,,0.56,meteohub,2013-06-30 18:27:00,
2013-06-30 14:32:00,80.4,74.5,29.75,ESE,111,0.0,1.0,82,0.00,,,0.56,meteohub,2013-06-30 18:32:00,
2013-06-30 14:37:00,80.2,74.3,29.75,ESE,111,0.0,0.0,82,0.00,,,0.56,meteohub,2013-06-30 18:37:00,
2013-06-30 14:42:00,80.2,75.0,29.75,ESE,111,0.0,0.0,84,0.00,,,0.56,meteohub,2013-06-30 18:42:00,
2013-06-30 14:47:00,79.9,74.7,29.75,ESE,111,0.0,0.0,84,0.00,,,0.56,meteohub,2013-06-30 18:47:00,
2013-06-30 14:52:00,79.5,74.7,29.75,WSW,246,2.0,0.0,85,0.00,,,0.56,meteohub,2013-06-30 18:52:00,
2013-06-30 14:57:00,78.8,73.9,29.76,WSW,254,0.0,3.0,85,0.00,,,0.56,meteohub,2013-06-30 18:57:00,
2013-06-30 15:02:00,77.5,74.1,29.76,SW,236,1.0,3.0,89,0.01,,,0.57,meteohub,2013-06-30 19:02:00,
2013-06-30 15:07:00,75.9,72.9,29.77,SW,223,0.0,4.0,90,0.17,,,0.73,meteohub,2013-06-30 19:07:00,
2013-06-30 15:12:00,74.5,71.4,29.77,East,101,1.0,4.0,90,0.20,,,0.76,meteohub,2013-06-30 19:12:00,
2013-06-30 15:17:00,72.9,69.1,29.77,SE,132,0.0,4.0,88,0.25,,,0.81,meteohub,2013-06-30 19:17:00,
2013-06-30 15:22:00,71.4,68.9,29.78,SSW,211,0.0,4.0,92,0.28,,,0.84,meteohub,2013-06-30 19:22:00,
2013-06-30 15:27:00,70.7,68.2,29.78,SSW,211,0.0,3.0,92,0.29,,,0.85,meteohub,2013-06-30 19:27:00,
2013-06-30 15:32:00,70.0,67.5,29.80,SSW,211,0.0,2.0,92,0.32,,,0.88,meteohub,2013-06-30 19:32:00,
2013-06-30 15:37:00,69.4,67.6,29.81,SSW,211,0.0,1.0,94,0.32,,,0.88,meteohub,2013-06-30 19:37:00,
2013-06-30 15:42:00,69.3,67.8,29.81,ESE,122,1.0,0.0,95,0.33,,,0.89,meteohub,2013-06-30 19:42:00,
2013-06-30 15:47:00,69.3,67.8,29.80,ESE,116,1.0,3.0,95,0.35,,,0.91,meteohub,2013-06-30 19:47:00,
2013-06-30 15:52:00,68.9,66.7,29.80,ESE,106,2.0,3.0,93,0.35,,,0.91,meteohub,2013-06-30 19:52:00,
2013-06-30 15:57:00,68.4,66.0,29.80,ESE,117,1.0,5.0,92,0.36,,,0.92,meteohub,2013-06-30 19:57:00,
2013-06-30 16:02:00,67.6,65.5,29.80,ESE,117,1.0,5.0,93,0.32,,,0.92,meteohub,2013-06-30 20:02:00,
2013-06-30 16:07:00,67.3,65.5,29.81,ESE,117,2.0,5.0,94,0.18,,,0.93,meteohub,2013-06-30 20:07:00,
2013-06-30 16:12:00,66.9,65.5,29.81,ESE,117,1.0,4.0,95,0.17,,,0.94,meteohub,2013-06-30 20:12:00,
2013-06-30 16:17:00,66.7,65.3,29.81,ESE,117,1.0,3.0,95,0.11,,,0.94,meteohub,2013-06-30 20:17:00,
2013-06-30 16:22:00,66.7,65.5,29.81,SE,124,3.0,3.0,96,0.10,,,0.95,meteohub,2013-06-30 20:22:00,
2013-06-30 16:27:00,66.6,65.3,29.81,ESE,117,1.0,4.0,96,0.09,,,0.96,meteohub,2013-06-30 20:27:00,
2013-06-30 16:32:00,66.6,65.7,29.81,ESE,117,0.0,4.0,97,0.09,,,0.97,meteohub,2013-06-30 20:32:00,
2013-06-30 16:37:00,66.7,65.8,29.81,ESE,117,0.0,4.0,97,0.08,,,0.97,meteohub,2013-06-30 20:37:00,
2013-06-30 16:42:00,66.7,65.8,29.80,ESE,117,0.0,2.0,97,0.09,,,0.98,meteohub,2013-06-30 20:42:00,
2013-06-30 16:47:00,66.9,66.0,29.80,ESE,117,0.0,0.0,97,0.07,,,0.98,meteohub,2013-06-30 20:47:00,
2013-06-30 16:52:00,66.9,66.0,29.81,ESE,117,0.0,1.0,97,0.09,,,1.00,meteohub,2013-06-30 20:52:00,
2013-06-30 16:57:00,66.9,66.0,29.81,ESE,117,0.0,1.0,97,0.08,,,1.00,meteohub,2013-06-30 20:57:00,
2013-06-30 17:02:00,66.9,66.0,29.80,ESE,117,0.0,1.0,97,0.10,,,1.02,meteohub,2013-06-30 21:02:00,
2013-06-30 17:07:00,66.9,66.0,29.81,ESE,117,0.0,1.0,97,0.09,,,1.02,meteohub,2013-06-30 21:07:00,
2013-06-30 17:12:00,67.3,66.7,29.80,ESE,117,0.0,0.0,98,0.09,,,1.03,meteohub,2013-06-30 21:12:00,
2013-06-30 17:17:00,67.5,66.9,29.80,ESE,117,0.0,0.0,98,0.08,,,1.03,meteohub,2013-06-30 21:17:00,
2013-06-30 17:22:00,67.5,66.9,29.80,ESE,117,0.0,0.0,98,0.08,,,1.03,meteohub,2013-06-30 21:22:00,
2013-06-30 17:27:00,67.5,66.9,29.80,ESE,117,0.0,0.0,98,0.08,,,1.04,meteohub,2013-06-30 21:27:00,
2013-06-30 17:32:00,67.6,67.1,29.80,ESE,117,0.0,0.0,98,0.08,,,1.05,meteohub,2013-06-30 21:32:00,
2013-06-30 17:37:00,67.6,67.1,29.80,ESE,117,0.0,0.0,98,0.07,,,1.05,meteohub,2013-06-30 21:37:00,
2013-06-30 17:42:00,67.8,67.3,29.80,ESE,117,0.0,0.0,98,0.07,,,1.05,meteohub,2013-06-30 21:42:00,
2013-06-30 17:47:00,68.0,67.5,29.80,ESE,117,0.0,0.0,98,0.07,,,1.06,meteohub,2013-06-30 21:47:00,
2013-06-30 17:52:00,68.0,67.5,29.80,ESE,117,0.0,0.0,98,0.06,,,1.06,meteohub,2013-06-30 21:52:00,
2013-06-30 17:58:00,68.2,67.6,29.80,ESE,117,0.0,0.0,98,0.05,,,1.06,meteohub,2013-06-30 21:58:00,
2013-06-30 18:03:00,68.2,67.6,29.80,ESE,117,0.0,0.0,98,0.04,,,1.06,meteohub,2013-06-30 22:03:00,
2013-06-30 18:08:00,68.4,67.8,29.80,ESE,117,0.0,0.0,98,0.03,,,1.06,meteohub,2013-06-30 22:08:00,
2013-06-30 18:13:00,68.4,67.8,29.80,ESE,117,0.0,0.0,98,0.03,,,1.06,meteohub,2013-06-30 22:13:00,
2013-06-30 18:18:00,68.4,67.8,29.80,SW,224,0.0,0.0,98,0.03,,,1.06,meteohub,2013-06-30 22:18:00,
2013-06-30 18:23:00,68.4,67.8,29.80,SW,218,0.0,2.0,98,0.02,,,1.06,meteohub,2013-06-30 22:23:00,
2013-06-30 18:28:00,68.5,68.0,29.80,SW,218,0.0,2.0,98,0.02,,,1.06,meteohub,2013-06-30 22:28:00,
2013-06-30 18:33:00,68.5,68.0,29.81,SW,218,0.0,2.0,98,0.01,,,1.06,meteohub,2013-06-30 22:33:00,
2013-06-30 18:38:00,68.5,68.0,29.81,WSW,237,0.0,0.0,98,0.01,,,1.06,meteohub,2013-06-30 22:38:00,
2013-06-30 18:43:00,68.7,68.2,29.81,WSW,237,0.0,1.0,98,0.00,,,1.06,meteohub,2013-06-30 22:43:00,
2013-06-30 18:49:00,68.7,68.2,29.81,WSW,237,0.0,1.0,98,0.00,,,1.06,meteohub,2013-06-30 22:49:00,
2013-06-30 18:54:00,68.7,68.2,29.81,WSW,237,0.0,1.0,98,0.00,,,1.06,meteohub,2013-06-30 22:54:00,
2013-06-30 18:59:00,68.7,68.2,29.81,WSW,237,0.0,1.0,98,0.00,,,1.06,meteohub,2013-06-30 22:59:00,
2013-06-30 19:04:00,68.7,68.2,29.81,WSW,237,0.0,1.0,98,0.00,,,1.06,meteohub,2013-06-30 23:04:00,
2013-06-30 19:09:00,68.7,68.2,29.80,South,174,0.0,1.0,98,0.01,,,1.07,meteohub,2013-06-30 23:09:00,
2013-06-30 19:14:00,68.7,68.2,29.80,South,174,0.0,1.0,98,0.01,,,1.07,meteohub,2013-06-30 23:14:00,
2013-06-30 19:19:00,68.7,68.2,29.81,South,174,0.0,1.0,98,0.01,,,1.07,meteohub,2013-06-30 23:19:00,
2013-06-30 19:24:00,68.7,68.2,29.81,South,174,0.0,1.0,98,0.01,,,1.07,meteohub,2013-06-30 23:24:00,
2013-06-30 19:29:00,68.7,68.2,29.81,South,174,0.0,1.0,98,0.01,,,1.07,meteohub,2013-06-30 23:29:00,
2013-06-30 19:34:00,68.7,68.2,29.81,South,174,0.0,0.0,98,0.02,,,1.08,meteohub,2013-06-30 23:34:00,
2013-06-30 19:40:00,68.5,68.0,29.81,South,174,0.0,0.0,98,0.02,,,1.08,meteohub,2013-06-30 23:40:00,
2013-06-30 19:45:00,68.5,68.0,29.81,South,182,0.0,0.0,98,0.03,,,1.09,meteohub,2013-06-30 23:45:00,
2013-06-30 19:50:00,68.5,68.0,29.82,South,182,0.0,1.0,98,0.03,,,1.09,meteohub,2013-06-30 23:50:00,
2013-06-30 19:55:00,68.5,68.0,29.82,South,182,0.0,1.0,98,0.03,,,1.09,meteohub,2013-06-30 23:55:00,
2013-06-30 20:00:00,68.5,68.0,29.83,South,182,0.0,0.0,98,0.04,,,1.10,meteohub,2013-07-01 00:00:00,
2013-06-30 20:06:00,68.5,68.0,29.83,South,182,0.0,0.0,98,0.03,,,1.10,meteohub,2013-07-01 00:06:00,
2013-06-30 20:11:00,68.7,68.2,29.83,SSW,211,0.0,0.0,98,0.03,,,1.10,meteohub,2013-07-01 00:11:00,
2013-06-30 20:16:00,68.7,68.2,29.83,SW,221,0.0,0.0,98,0.03,,,1.10,meteohub,2013-07-01 00:16:00,
2013-06-30 20:21:00,68.7,68.2,29.83,SW,221,0.0,0.0,98,0.03,,,1.10,meteohub,2013-07-01 00:21:00,
2013-06-30 20:26:00,68.7,68.2,29.84,SW,221,0.0,0.0,98,0.04,,,1.11,meteohub,2013-07-01 00:26:00,
2013-06-30 20:31:00,68.7,68.2,29.84,SW,220,0.0,0.0,98,0.03,,,1.11,meteohub,2013-07-01 00:31:00,
2013-06-30 20:36:00,68.7,68.2,29.83,SW,220,0.0,0.0,98,0.03,,,1.11,meteohub,2013-07-01 00:36:00,
2013-06-30 20:41:00,68.5,68.0,29.84,SW,220,0.0,0.0,98,0.02,,,1.11,meteohub,2013-07-01 00:41:00,
2013-06-30 20:44:00,68.5,68.0,29.84,SW,220,0.0,0.0,98,0.02,,,1.11,meteohub,2013-07-01 00:44:00,
2013-06-30 20:49:00,68.5,68.0,29.83,SW,220,0.0,0.0,98,0.02,,,1.11,meteohub,2013-07-01 00:49:00,
2013-06-30 20:54:00,68.5,68.0,29.83,SW,220,0.0,0.0,98,0.02,,,1.11,meteohub,2013-07-01 00:54:00,
2013-06-30 21:00:00,68.5,68.0,29.83,SW,220,0.0,0.0,98,0.02,,,1.11,meteohub,2013-07-01 01:00:00,
2013-06-30 21:05:00,68.4,67.8,29.83,SW,220,0.0,0.0,98,0.02,,,1.12,meteohub,2013-07-01 01:05:00,
2013-06-30 21:10:00,68.4,67.8,29.83,SW,220,0.0,0.0,98,0.02,,,1.12,meteohub,2013-07-01 01:10:00,
2013-06-30 21:15:00,68.5,68.0,29.83,SW,220,0.0,1.0,98,0.02,,,1.12,meteohub,2013-07-01 01:15:00,
2013-06-30 21:20:00,68.5,68.0,29.83,SW,220,0.0,1.0,98,0.02,,,1.12,meteohub,2013-07-01 01:20:00,
2013-06-30 21:25:00,68.5,68.0,29.83,SSW,197,0.0,0.0,98,0.01,,,1.12,meteohub,2013-07-01 01:25:00,
2013-06-30 21:30:00,68.5,68.0,29.84,SSE,167,0.0,1.0,98,0.01,,,1.12,meteohub,2013-07-01 01:30:00,
2013-06-30 21:35:00,68.5,68.2,29.84,SSE,164,0.0,1.0,99,0.01,,,1.12,meteohub,2013-07-01 01:35:00,
2013-06-30 21:40:00,68.5,68.2,29.84,SSE,164,0.0,1.0,99,0.01,,,1.12,meteohub,2013-07-01 01:40:00,
2013-06-30 21:46:00,68.5,68.2,29.84,SSE,164,0.0,1.0,99,0.01,,,1.12,meteohub,2013-07-01 01:46:00,
2013-06-30 21:51:00,68.5,68.2,29.83,SSE,164,0.0,0.0,99,0.01,,,1.12,meteohub,2013-07-01 01:51:00,
2013-06-30 21:56:00,68.5,68.2,29.84,SSE,154,0.0,1.0,99,0.01,,,1.12,meteohub,2013-07-01 01:56:00,
2013-06-30 22:01:00,68.5,68.2,29.84,SSE,154,0.0,1.0,99,0.01,,,1.12,meteohub,2013-07-01 02:01:00,
2013-06-30 22:06:00,68.5,68.2,29.85,SSE,154,0.0,1.0,99,0.00,,,1.12,meteohub,2013-07-01 02:06:00,
2013-06-30 22:11:00,68.5,68.2,29.85,SSE,154,0.0,1.0,99,0.00,,,1.12,meteohub,2013-07-01 02:11:00,
2013-06-30 22:16:00,68.5,68.2,29.85,SSE,154,0.0,0.0,99,0.00,,,1.12,meteohub,2013-07-01 02:16:00,
2013-06-30 22:22:00,68.5,68.2,29.85,SSE,154,0.0,0.0,99,0.00,,,1.12,meteohub,2013-07-01 02:22:00,
2013-06-30 22:27:00,68.5,68.2,29.85,SSE,154,0.0,0.0,99,0.00,,,1.12,meteohub,2013-07-01 02:27:00,
2013-06-30 22:32:00,68.7,68.4,29.85,SSE,154,0.0,0.0,99,0.00,,,1.12,meteohub,2013-07-01 02:32:00,
2013-06-30 22:37:00,68.7,68.4,29.85,SSE,150,0.0,0.0,99,0.00,,,1.12,meteohub,2013-07-01 02:37:00,
2013-06-30 22:42:00,68.7,68.4,29.86,SE,134,0.0,1.0,99,0.00,,,1.12,meteohub,2013-07-01 02:42:00,
2013-06-30 22:47:00,68.7,68.4,29.86,SE,134,0.0,2.0,99,0.00,,,1.12,meteohub,2013-07-01 02:47:00,
2013-06-30 22:52:00,68.7,68.4,29.86,SE,134,0.0,2.0,99,0.00,,,1.12,meteohub,2013-07-01 02:52:00,
2013-06-30 22:57:00,69.1,68.7,29.86,SE,134,0.0,2.0,99,0.00,,,1.12,meteohub,2013-07-01 02:57:00,
2013-06-30 23:02:00,69.1,68.7,29.86,SE,134,0.0,2.0,99,0.00,,,1.12,meteohub,2013-07-01 03:02:00,
2013-06-30 23:07:00,69.1,68.7,29.85,SE,133,1.0,2.0,99,0.00,,,1.12,meteohub,2013-07-01 03:07:00,
2013-06-30 23:12:00,69.1,68.7,29.86,SE,133,0.0,2.0,99,0.00,,,1.12,meteohub,2013-07-01 03:12:00,
2013-06-30 23:17:00,69.1,68.7,29.85,SE,133,0.0,2.0,99,0.00,,,1.12,meteohub,2013-07-01 03:17:00,
2013-06-30 23:22:00,69.3,68.9,29.85,SE,133,0.0,1.0,99,0.00,,,1.12,meteohub,2013-07-01 03:22:00,
2013-06-30 23:27:00,69.3,68.9,29.85,SE,133,0.0,1.0,99,0.00,,,1.12,meteohub,2013-07-01 03:27:00,
2013-06-30 23:32:00,69.3,68.9,29.86,SE,133,0.0,1.0,99,0.00,,,1.12,meteohub,2013-07-01 03:32:00,
2013-06-30 23:37:00,69.3,68.9,29.86,SE,133,0.0,0.0,99,0.00,,,1.12,meteohub,2013-07-01 03:37:00,
2013-06-30 23:42:00,69.3,68.9,29.86,SE,133,0.0,0.0,99,0.00,,,1.12,meteohub,2013-07-01 03:42:00,
2013-06-30 23:47:00,69.3,68.9,29.86,SE,133,0.0,0.0,99,0.00,,,1.12,meteohub,2013-07-01 03:47:00,
2013-06-30 23:52:00,69.3,68.9,29.86,SE,133,0.0,0.0,99,0.01,,,1.13,meteohub,2013-07-01 03:52:00,
2013-06-30 23:57:00,69.4,69.1,29.86,SE,127,0.0,0.0,99,0.01,,,1.13,meteohub,2013-07-01 03:57:00,